Time;durP1;ratioP1;P1;durP2;ratioP2;P2;SDS_P1;SDS_P2;PMS_P1;PMS_P2;Temp;Humidity;BMP_temperature;BMP_pressure;BME280_temperature;BME280_humidity;BME280_pressure;Samples;Min_cycle;Max_cycle;Signal;HPM_P1;HPM_P2
2023/09/20 00:00:46;;;;;;;2.23;1.80;;;;;;;;;;5115566;28;20528;-61
2023/09/20 00:03:13;;;;;;;3.33;1.87;;;;;;;;;;5115376;28;20476;-61
2023/09/20 00:05:40;;;;;;;2.83;2.10;;;;;;;;;;5115244;28;20540;-62
2023/09/20 00:08:07;;;;;;;3.30;2.10;;;;;;;;;;5115117;28;20440;-61
2023/09/20 00:10:34;;;;;;;2.60;1.50;;;;;;;;;;5115375;28;20483;-61
2023/09/20 00:13:01;;;;;;;2.00;1.70;;;;;;;;;;5115221;28;20448;-61
2023/09/20 00:15:30;;;;;;;2.97;2.27;;;;;;;;;;5115014;28;20480;-61
2023/09/20 00:17:58;;;;;;;2.60;1.83;;;;;;;;;;5115156;28;20438;-61
2023/09/20 00:20:25;;;;;;;4.47;2.30;;;;;;;;;;5114928;28;20449;-61
2023/09/20 00:22:52;;;;;;;2.73;1.90;;;;;;;;;;5115175;28;20864;-61
2023/09/20 00:25:20;;;;;;;3.33;2.03;;;;;;;;;;5115030;28;20537;-61
2023/09/20 00:27:47;;;;;;;7.27;2.27;;;;;;;;;;5114928;28;20467;-61
2023/09/20 00:30:17;;;;;;;3.90;2.17;;;;;;;;;;5114876;28;20452;-61
2023/09/20 00:32:47;;;;;;;4.57;2.33;;;;;;;;;;5114788;28;20936;-61
2023/09/20 00:35:14;;;;;;;2.17;1.90;;;;;;;;;;5114902;28;20572;-62
2023/09/20 00:37:42;;;;;;;6.30;2.00;;;;;;;;;;5114954;28;20442;-61
2023/09/20 00:40:15;;;;;;;4.43;1.77;;;;;;;;;;5115046;28;20446;-61
2023/09/20 00:42:42;;;;;;;2.80;1.70;;;;;;;;;;5114579;28;20445;-61
2023/09/20 00:45:10;;;;;;;4.20;1.83;;;;;;;;;;5114544;28;20527;-61
2023/09/20 00:47:40;;;;;;;3.30;2.47;;;;;;;;;;5114409;28;20448;-61
2023/09/20 00:50:10;;;;;;;3.93;2.10;;;;;;;;;;5114265;28;20510;-61
2023/09/20 00:52:39;;;;;;;2.13;1.93;;;;;;;;;;5114536;28;20453;-61
2023/09/20 00:55:07;;;;;;;3.23;2.27;;;;;;;;;;5114290;28;20567;-61
2023/09/20 00:57:34;;;;;;;3.40;2.00;;;;;;;;;;5114349;28;20813;-61
2023/09/20 01:00:13;;;;;;;3.40;1.90;;;;;;;;;;5114164;28;20438;-61
2023/09/20 01:02:40;;;;;;;3.97;2.07;;;;;;;;;;5114333;28;20532;-61
2023/09/20 01:05:09;;;;;;;4.43;1.80;;;;;;;;;;5114175;28;20481;-61
2023/09/20 01:07:36;;;;;;;2.90;1.93;;;;;;;;;;5114019;28;21013;-62
2023/09/20 01:10:05;;;;;;;4.13;2.20;;;;;;;;;;5114092;28;20529;-61
2023/09/20 01:12:32;;;;;;;3.37;2.07;;;;;;;;;;5113896;28;20445;-62
2023/09/20 01:14:59;;;;;;;2.57;1.90;;;;;;;;;;5113805;28;21056;-62
2023/09/20 01:17:26;;;;;;;3.10;2.10;;;;;;;;;;5114078;28;20484;-62
2023/09/20 01:19:53;;;;;;;6.93;2.20;;;;;;;;;;5113953;28;20444;-61
2023/09/20 01:22:21;;;;;;;2.13;1.80;;;;;;;;;;5113573;28;20452;-61
2023/09/20 01:24:49;;;;;;;4.00;2.13;;;;;;;;;;5113905;28;20536;-61
2023/09/20 01:27:16;;;;;;;4.87;2.60;;;;;;;;;;5113672;28;21017;-61
2023/09/20 01:29:43;;;;;;;2.00;1.87;;;;;;;;;;5113945;28;20596;-61
2023/09/20 01:32:11;;;;;;;2.70;1.70;;;;;;;;;;5113843;28;20528;-61
2023/09/20 01:34:38;;;;;;;4.07;1.93;;;;;;;;;;5113650;28;20905;-61
2023/09/20 01:37:05;;;;;;;5.37;2.20;;;;;;;;;;5113622;28;20778;-61
2023/09/20 01:39:33;;;;;;;1.70;1.60;;;;;;;;;;5113510;28;20449;-62
2023/09/20 01:42:00;;;;;;;4.20;2.10;;;;;;;;;;5113771;28;20816;-61
2023/09/20 01:44:28;;;;;;;2.30;1.70;;;;;;;;;;5113645;28;20446;-61
2023/09/20 01:46:55;;;;;;;2.30;1.90;;;;;;;;;;5113606;28;20437;-61
2023/09/20 01:49:23;;;;;;;3.00;1.93;;;;;;;;;;5113553;28;20478;-61
2023/09/20 01:51:50;;;;;;;5.13;2.17;;;;;;;;;;5113543;28;20442;-61
2023/09/20 01:54:17;;;;;;;1.97;1.77;;;;;;;;;;5113336;28;20937;-62
2023/09/20 01:56:45;;;;;;;2.77;1.67;;;;;;;;;;5113478;28;20886;-61
2023/09/20 01:59:12;;;;;;;5.50;1.93;;;;;;;;;;5113510;28;20473;-62
2023/09/20 02:01:39;;;;;;;2.97;1.80;;;;;;;;;;5113442;28;20529;-61
2023/09/20 02:04:06;;;;;;;5.23;2.20;;;;;;;;;;5113356;28;20873;-61
2023/09/20 02:06:33;;;;;;;1.60;1.50;;;;;;;;;;5113320;28;20441;-62
2023/09/20 02:09:01;;;;;;;3.50;2.03;;;;;;;;;;5113536;28;20532;-61
2023/09/20 02:11:28;;;;;;;3.97;1.83;;;;;;;;;;5113424;28;20862;-61
2023/09/20 02:13:56;;;;;;;3.43;1.87;;;;;;;;;;5113305;28;20536;-61
2023/09/20 02:16:23;;;;;;;3.57;1.40;;;;;;;;;;5113249;28;20564;-61
2023/09/20 02:18:51;;;;;;;2.57;1.50;;;;;;;;;;5113289;28;20861;-61
2023/09/20 02:21:18;;;;;;;3.27;1.80;;;;;;;;;;5113030;28;20857;-62
2023/09/20 02:23:45;;;;;;;1.70;1.53;;;;;;;;;;5113392;28;20485;-61
2023/09/20 02:26:13;;;;;;;2.03;1.80;;;;;;;;;;5113298;28;20448;-62
2023/09/20 02:28:40;;;;;;;2.60;1.60;;;;;;;;;;5113197;28;20449;-62
2023/09/20 02:31:11;;;;;;;1.80;1.70;;;;;;;;;;5113165;28;20820;-61
2023/09/20 02:33:38;;;;;;;2.07;1.70;;;;;;;;;;5115305;28;20528;-61
2023/09/20 02:36:06;;;;;;;3.73;1.87;;;;;;;;;;5117163;28;20492;-61
2023/09/20 02:38:32;;;;;;;1.80;1.70;;;;;;;;;;5117160;28;20464;-61
2023/09/20 02:40:59;;;;;;;2.17;1.40;;;;;;;;;;5117152;28;20983;-61
2023/09/20 02:43:29;;;;;;;5.50;1.93;;;;;;;;;;5116957;28;20441;-61
2023/09/20 02:45:59;;;;;;;3.80;1.90;;;;;;;;;;5116826;28;20494;-61
2023/09/20 02:48:28;;;;;;;2.70;1.73;;;;;;;;;;5116767;28;20510;-61
2023/09/20 02:50:55;;;;;;;2.77;2.30;;;;;;;;;;5116681;28;20987;-61
2023/09/20 02:53:22;;;;;;;3.60;1.80;;;;;;;;;;5116830;28;20528;-61
2023/09/20 02:55:48;;;;;;;4.23;2.20;;;;;;;;;;5116588;28;20476;-61
2023/09/20 02:58:15;;;;;;;2.03;1.83;;;;;;;;;;5117082;28;20900;-61
2023/09/20 03:00:46;;;;;;;2.20;2.00;;;;;;;;;;5116554;28;20437;-62
2023/09/20 03:03:15;;;;;;;2.90;1.60;;;;;;;;;;5116698;28;20442;-61
2023/09/20 03:05:43;;;;;;;7.33;1.70;;;;;;;;;;5116643;28;20442;-61
2023/09/20 03:08:11;;;;;;;5.77;1.90;;;;;;;;;;5116264;28;20932;-61
2023/09/20 03:10:39;;;;;;;4.90;2.10;;;;;;;;;;5116432;28;20441;-61
2023/09/20 03:13:06;;;;;;;1.87;1.60;;;;;;;;;;5116238;28;20445;-61
2023/09/20 03:15:33;;;;;;;3.57;1.90;;;;;;;;;;5116169;28;20484;-61
2023/09/20 03:18:03;;;;;;;2.50;1.33;;;;;;;;;;5116315;28;20536;-61
2023/09/20 03:20:32;;;;;;;2.00;1.50;;;;;;;;;;5116366;28;20484;-61
2023/09/20 03:23:01;;;;;;;3.40;1.90;;;;;;;;;;5115971;28;20446;-61
2023/09/20 03:25:29;;;;;;;2.50;1.23;;;;;;;;;;5116067;28;20548;-61
2023/09/20 03:27:57;;;;;;;6.00;1.70;;;;;;;;;;5115623;28;20445;-61
2023/09/20 03:30:28;;;;;;;2.33;1.37;;;;;;;;;;5115892;28;20533;-61
2023/09/20 03:32:56;;;;;;;2.47;2.27;;;;;;;;;;5115774;28;20445;-61
2023/09/20 03:35:23;;;;;;;1.87;1.50;;;;;;;;;;5115591;28;20465;-61
2023/09/20 03:37:50;;;;;;;2.80;1.70;;;;;;;;;;5115585;28;20755;-61
2023/09/20 03:40:19;;;;;;;2.73;1.83;;;;;;;;;;5115493;28;20536;-62
2023/09/20 03:42:46;;;;;;;3.00;1.83;;;;;;;;;;5115944;28;20474;-61
2023/09/20 03:45:15;;;;;;;1.57;1.47;;;;;;;;;;5115554;28;20442;-61
2023/09/20 03:47:42;;;;;;;1.70;1.60;;;;;;;;;;5115743;28;20857;-61
2023/09/20 03:50:09;;;;;;;1.60;1.50;;;;;;;;;;5115532;28;20895;-61
2023/09/20 03:52:37;;;;;;;2.30;1.60;;;;;;;;;;5115542;28;20446;-61
2023/09/20 03:55:04;;;;;;;3.83;1.60;;;;;;;;;;5115444;28;20448;-61
2023/09/20 03:57:33;;;;;;;2.47;1.40;;;;;;;;;;5115680;28;20533;-61
2023/09/20 04:00:00;;;;;;;2.00;1.50;;;;;;;;;;5115569;28;20442;-61
2023/09/20 04:02:29;;;;;;;4.90;1.80;;;;;;;;;;5115509;28;20445;-61
2023/09/20 04:04:56;;;;;;;2.13;1.60;;;;;;;;;;5115287;28;20442;-61
2023/09/20 04:07:24;;;;;;;2.03;1.87;;;;;;;;;;5115153;28;20943;-62
2023/09/20 04:09:51;;;;;;;2.70;1.80;;;;;;;;;;5115419;28;20438;-61
2023/09/20 04:12:18;;;;;;;4.70;1.70;;;;;;;;;;5115109;28;21051;-61
2023/09/20 04:14:46;;;;;;;3.53;1.90;;;;;;;;;;5115238;28;20441;-61
2023/09/20 04:17:13;;;;;;;3.40;1.70;;;;;;;;;;5114923;28;20485;-61
2023/09/20 04:19:42;;;;;;;1.93;1.83;;;;;;;;;;5114921;28;20528;-61
2023/09/20 04:22:10;;;;;;;2.67;1.60;;;;;;;;;;5114858;28;20450;-61
2023/09/20 04:24:37;;;;;;;1.67;1.57;;;;;;;;;;5114989;28;20453;-61
2023/09/20 04:27:04;;;;;;;1.50;1.40;;;;;;;;;;5115017;28;20557;-61
2023/09/20 04:29:32;;;;;;;1.70;1.60;;;;;;;;;;5114959;28;20528;-61
2023/09/20 04:32:00;;;;;;;1.77;1.43;;;;;;;;;;5114798;28;20456;-61
2023/09/20 04:34:27;;;;;;;1.20;1.10;;;;;;;;;;5114661;28;20567;-62
2023/09/20 04:36:54;;;;;;;2.83;2.20;;;;;;;;;;5114778;28;20477;-61
2023/09/20 04:39:21;;;;;;;2.73;1.87;;;;;;;;;;5114969;28;20869;-61
2023/09/20 04:41:48;;;;;;;3.40;1.73;;;;;;;;;;5114769;28;20884;-61
2023/09/20 04:44:15;;;;;;;2.67;1.87;;;;;;;;;;5114488;28;20549;-61
2023/09/20 04:46:42;;;;;;;1.83;1.50;;;;;;;;;;5114834;28;20434;-61
2023/09/20 04:49:11;;;;;;;2.97;1.70;;;;;;;;;;5114323;28;20786;-61
2023/09/20 04:51:38;;;;;;;2.10;1.30;;;;;;;;;;5114223;28;20462;-61
2023/09/20 04:54:07;;;;;;;5.00;1.70;;;;;;;;;;5114526;28;20443;-62
2023/09/20 04:56:34;;;;;;;1.93;1.50;;;;;;;;;;5113600;28;20531;-61
2023/09/20 04:59:04;;;;;;;2.57;1.30;;;;;;;;;;5114260;28;20445;-61
2023/09/20 05:01:30;;;;;;;5.40;1.80;;;;;;;;;;5114145;28;20932;-62
2023/09/20 05:03:57;;;;;;;5.30;2.20;;;;;;;;;;5114003;28;20437;-61
2023/09/20 05:06:26;;;;;;;2.23;1.50;;;;;;;;;;5113925;28;20524;-61
2023/09/20 05:08:53;;;;;;;4.90;1.63;;;;;;;;;;5114165;28;20895;-61
2023/09/20 05:11:20;;;;;;;9.20;2.30;;;;;;;;;;5114042;28;20536;-62
2023/09/20 05:13:47;;;;;;;4.57;1.67;;;;;;;;;;5113971;28;20438;-61
2023/09/20 05:16:14;;;;;;;2.00;1.53;;;;;;;;;;5113806;28;20920;-62
2023/09/20 05:18:41;;;;;;;3.90;1.60;;;;;;;;;;5114128;28;21122;-61
2023/09/20 05:21:09;;;;;;;1.87;1.53;;;;;;;;;;5113865;28;20441;-61
2023/09/20 05:23:40;;;;;;;1.87;1.23;;;;;;;;;;5113948;28;20449;-62
2023/09/20 05:26:07;;;;;;;5.07;1.93;;;;;;;;;;5113842;28;20464;-61
2023/09/20 05:28:35;;;;;;;2.83;2.03;;;;;;;;;;5113638;28;20485;-63
2023/09/20 05:31:02;;;;;;;3.73;2.30;;;;;;;;;;5113517;28;20473;-61
2023/09/20 05:33:30;;;;;;;4.17;1.63;;;;;;;;;;5113784;28;20474;-61
2023/09/20 05:35:58;;;;;;;2.90;1.90;;;;;;;;;;5113575;28;20472;-61
2023/09/20 05:38:26;;;;;;;4.20;1.70;;;;;;;;;;5113629;28;20446;-61
2023/09/20 05:40:54;;;;;;;1.57;1.40;;;;;;;;;;5113604;28;20445;-61
2023/09/20 05:43:21;;;;;;;2.33;1.73;;;;;;;;;;5113410;28;20448;-62
2023/09/20 05:45:48;;;;;;;4.37;1.70;;;;;;;;;;5113699;28;20529;-61
2023/09/20 05:48:16;;;;;;;3.10;1.80;;;;;;;;;;5113442;28;21019;-61
2023/09/20 05:50:43;;;;;;;5.93;1.60;;;;;;;;;;5113118;28;21056;-61
2023/09/20 05:53:11;;;;;;;1.90;1.57;;;;;;;;;;5113313;28;20551;-61
2023/09/20 05:55:38;;;;;;;2.70;1.60;;;;;;;;;;5113374;28;20437;-61
2023/09/20 05:58:07;;;;;;;4.60;1.47;;;;;;;;;;5113282;28;20585;-61
2023/09/20 06:00:35;;;;;;;3.47;1.70;;;;;;;;;;5113500;28;20530;-61
2023/09/20 06:03:04;;;;;;;2.90;1.70;;;;;;;;;;5113508;28;20445;-61
2023/09/20 06:05:33;;;;;;;1.60;1.50;;;;;;;;;;5113356;28;20462;-61
2023/09/20 06:08:00;;;;;;;1.80;1.70;;;;;;;;;;5116713;28;20862;-61
2023/09/20 06:10:27;;;;;;;1.50;1.40;;;;;;;;;;5117469;28;20502;-61
2023/09/20 06:12:54;;;;;;;2.33;1.27;;;;;;;;;;5117691;28;20536;-61
2023/09/20 06:15:23;;;;;;;3.80;1.60;;;;;;;;;;5117377;28;20540;-61
2023/09/20 06:17:50;;;;;;;2.27;1.90;;;;;;;;;;5117297;28;20488;-61
2023/09/20 06:20:19;;;;;;;3.60;2.17;;;;;;;;;;5117231;28;20878;-61
2023/09/20 06:22:47;;;;;;;2.73;1.77;;;;;;;;;;5117225;28;20441;-62
2023/09/20 06:25:15;;;;;;;4.13;1.60;;;;;;;;;;5117095;28;20452;-61
2023/09/20 06:27:42;;;;;;;2.33;1.50;;;;;;;;;;5117296;28;20471;-61
2023/09/20 06:30:13;;;;;;;3.87;1.73;;;;;;;;;;5117064;28;20487;-61
2023/09/20 06:32:42;;;;;;;7.17;1.80;;;;;;;;;;5117075;28;20468;-61
2023/09/20 06:35:09;;;;;;;3.53;1.70;;;;;;;;;;5117051;28;20445;-61
2023/09/20 06:37:38;;;;;;;3.40;1.50;;;;;;;;;;5116821;28;20504;-62
2023/09/20 06:40:15;;;;;;;1.40;1.30;;;;;;;;;;5117032;28;20797;-61
2023/09/20 06:42:42;;;;;;;1.70;1.40;;;;;;;;;;5117083;28;20446;-61
2023/09/20 06:45:09;;;;;;;1.50;1.30;;;;;;;;;;5116924;28;20445;-62
2023/09/20 06:47:36;;;;;;;1.57;1.47;;;;;;;;;;5116805;28;20445;-61
2023/09/20 06:50:04;;;;;;;1.53;1.43;;;;;;;;;;5116561;28;20457;-61
2023/09/20 06:52:31;;;;;;;4.33;1.53;;;;;;;;;;5116667;28;20528;-62
2023/09/20 06:54:58;;;;;;;3.10;1.40;;;;;;;;;;5116770;28;20441;-67
2023/09/20 06:57:25;;;;;;;1.63;1.30;;;;;;;;;;5116496;28;20483;-69
2023/09/20 06:59:54;;;;;;;3.87;1.80;;;;;;;;;;5116518;28;20477;-60
2023/09/20 07:02:24;;;;;;;5.77;1.90;;;;;;;;;;5116147;28;20441;-63
2023/09/20 07:04:51;;;;;;;1.87;1.23;;;;;;;;;;5096448;28;20445;-61
2023/09/20 07:07:19;;;;;;;3.80;1.50;;;;;;;;;;5096054;28;20446;-63
2023/09/20 07:09:46;;;;;;;2.60;1.70;;;;;;;;;;5095988;28;20533;-62
2023/09/20 07:12:14;;;;;;;4.47;1.20;;;;;;;;;;5095921;28;20446;-61
2023/09/20 07:14:41;;;;;;;2.23;1.40;;;;;;;;;;5095785;28;20450;-64
2023/09/20 07:17:08;;;;;;;5.00;1.60;;;;;;;;;;5095802;28;20478;-60
2023/09/20 07:19:37;;;;;;;3.00;1.40;;;;;;;;;;5095187;28;20457;-62
2023/09/20 07:22:05;;;;;;;1.83;1.27;;;;;;;;;;5095836;28;20450;-62
2023/09/20 07:24:35;;;;;;;4.00;1.70;;;;;;;;;;5095946;28;20492;-63
2023/09/20 07:27:03;;;;;;;3.27;2.00;;;;;;;;;;5095609;28;20459;-61
2023/09/20 07:29:30;;;;;;;3.33;1.77;;;;;;;;;;5095324;28;20938;-72
2023/09/20 07:32:00;;;;;;;2.33;1.40;;;;;;;;;;5095631;28;20505;-74
2023/09/20 07:34:26;;;;;;;8.47;1.50;;;;;;;;;;5095691;28;20450;-57
2023/09/20 07:36:56;;;;;;;1.97;1.87;;;;;;;;;;5095492;28;20501;-59
2023/09/20 07:39:23;;;;;;;2.10;1.30;;;;;;;;;;5095528;28;20466;-67
2023/09/20 07:41:52;;;;;;;4.20;2.07;;;;;;;;;;5095384;28;20530;-67
2023/09/20 07:44:23;;;;;;;4.53;1.50;;;;;;;;;;5095100;28;20775;-66
2023/09/20 07:46:51;;;;;;;2.13;1.40;;;;;;;;;;5095049;28;20981;-65
2023/09/20 07:49:18;;;;;;;2.57;1.30;;;;;;;;;;5095268;28;20520;-64
2023/09/20 07:51:45;;;;;;;3.27;1.60;;;;;;;;;;5095342;28;20477;-60
2023/09/20 07:54:14;;;;;;;3.90;1.77;;;;;;;;;;5095113;28;20442;-65
2023/09/20 07:56:43;;;;;;;5.73;1.57;;;;;;;;;;5094869;28;20481;-62
2023/09/20 07:59:13;;;;;;;2.90;1.60;;;;;;;;;;5095326;28;20446;-65
2023/09/20 08:01:42;;;;;;;3.03;1.80;;;;;;;;;;5095042;28;20859;-72
2023/09/20 08:04:10;;;;;;;1.70;1.60;;;;;;;;;;5095109;28;20438;-76
2023/09/20 08:06:40;;;;;;;3.27;1.50;;;;;;;;;;5094930;28;20508;-75
2023/09/20 08:09:07;;;;;;;3.50;1.37;;;;;;;;;;5094827;28;20571;-74
2023/09/20 08:11:34;;;;;;;2.60;1.50;;;;;;;;;;5095497;28;20526;-67
2023/09/20 08:14:02;;;;;;;1.50;1.23;;;;;;;;;;5094932;28;20447;-72
2023/09/20 08:16:33;;;;;;;2.33;1.90;;;;;;;;;;5094628;28;20443;-70
2023/09/20 08:19:09;;;;;;;2.47;1.97;;;;;;;;;;5094600;28;20806;-67
2023/09/20 08:21:38;;;;;;;2.10;1.60;;;;;;;;;;5094556;28;20819;-62
2023/09/20 09:00:12;;;;;;;3.37;1.40;;;;;;;;;;5093845;28;20442;-66
2023/09/20 09:02:41;;;;;;;6.20;1.70;;;;;;;;;;5094120;28;20442;-64
2023/09/20 09:05:09;;;;;;;3.20;1.50;;;;;;;;;;5093921;28;20446;-64
2023/09/20 09:07:36;;;;;;;2.60;1.70;;;;;;;;;;5093654;28;20549;-63
2023/09/20 09:10:04;;;;;;;4.20;1.70;;;;;;;;;;5093814;28;20457;-65
2023/09/20 09:12:31;;;;;;;4.10;1.70;;;;;;;;;;5093861;28;20457;-67
2023/09/20 09:14:59;;;;;;;2.70;1.57;;;;;;;;;;5093679;28;20955;-64
2023/09/20 09:17:28;;;;;;;1.83;1.30;;;;;;;;;;5093483;28;20470;-71
2023/09/20 09:19:55;;;;;;;1.70;1.47;;;;;;;;;;5093836;28;20442;-65
2023/09/20 09:22:25;;;;;;;1.90;1.13;;;;;;;;;;5093423;28;20934;-65
2023/09/20 09:24:53;;;;;;;1.93;1.30;;;;;;;;;;5093728;28;20541;-64
2023/09/20 09:27:21;;;;;;;3.27;1.63;;;;;;;;;;5093431;28;20446;-66
2023/09/20 09:29:48;;;;;;;4.57;1.53;;;;;;;;;;5093420;28;20478;-66
2023/09/20 09:32:14;;;;;;;2.20;1.67;;;;;;;;;;5093295;28;20479;-67
2023/09/20 09:34:42;;;;;;;7.43;2.07;;;;;;;;;;5093249;28;20534;-63
2023/09/20 09:37:10;;;;;;;2.40;2.00;;;;;;;;;;5093054;28;20992;-67
2023/09/20 09:39:39;;;;;;;2.00;1.40;;;;;;;;;;5093400;28;20446;-67
2023/09/20 09:42:06;;;;;;;3.83;2.00;;;;;;;;;;5092849;28;20454;-63
2023/09/20 09:44:48;;;;;;;1.70;1.57;;;;;;;;;;5093077;28;20468;-65
2023/09/20 09:47:15;;;;;;;3.40;1.60;;;;;;;;;;5092985;28;20458;-72
2023/09/20 09:49:42;;;;;;;2.40;1.70;;;;;;;;;;5093086;28;20469;-68
2023/09/20 09:52:11;;;;;;;2.03;1.23;;;;;;;;;;5093179;28;20427;-68
2023/09/20 09:54:40;;;;;;;3.10;1.40;;;;;;;;;;5093136;28;20783;-63
2023/09/20 09:57:06;;;;;;;3.13;1.37;;;;;;;;;;5092835;28;20442;-67
2023/09/20 09:59:33;;;;;;;2.70;1.43;;;;;;;;;;5093056;28;20874;-67
2023/09/20 10:02:01;;;;;;;4.63;2.10;;;;;;;;;;5093086;28;20439;-65
2023/09/20 10:04:28;;;;;;;3.67;1.63;;;;;;;;;;5093131;28;20521;-67
2023/09/20 10:07:01;;;;;;;3.03;1.63;;;;;;;;;;5092956;28;20443;-64
2023/09/20 10:09:29;;;;;;;4.63;1.47;;;;;;;;;;5092906;28;20477;-67
2023/09/20 10:11:57;;;;;;;1.77;1.27;;;;;;;;;;5092823;28;20442;-68
2023/09/20 10:14:24;;;;;;;3.50;1.60;;;;;;;;;;5093102;28;20478;-64
2023/09/20 10:16:51;;;;;;;2.30;1.40;;;;;;;;;;5093150;28;20478;-61
2023/09/20 10:19:18;;;;;;;4.97;1.60;;;;;;;;;;5092879;28;20492;-64
2023/09/20 10:22:02;;;;;;;1.90;1.47;;;;;;;;;;5092747;28;20447;-64
2023/09/20 10:24:30;;;;;;;3.00;1.70;;;;;;;;;;5092537;28;20476;-64
2023/09/20 10:27:03;;;;;;;5.97;1.80;;;;;;;;;;5092592;28;20952;-64
2023/09/20 10:29:33;;;;;;;2.63;1.30;;;;;;;;;;5092552;28;20442;-62
2023/09/20 10:32:10;;;;;;;1.83;1.47;;;;;;;;;;5092782;28;20491;-63
2023/09/20 10:34:38;;;;;;;2.80;2.27;;;;;;;;;;5092670;28;20474;-62
2023/09/20 10:37:08;;;;;;;1.63;1.40;;;;;;;;;;5092377;28;20798;-63
2023/09/20 10:39:35;;;;;;;2.30;1.60;;;;;;;;;;5092727;28;20449;-62
2023/09/20 10:42:10;;;;;;;11.50;9.23;;;;;;;;;;5092712;28;20453;-64
2023/09/20 10:44:40;;;;;;;1.93;1.53;;;;;;;;;;5092680;28;20450;-65
2023/09/20 10:47:08;;;;;;;5.83;1.70;;;;;;;;;;5093063;28;20443;-67
2023/09/20 10:49:43;;;;;;;2.73;1.70;;;;;;;;;;5092077;28;20454;-62
2023/09/20 10:52:10;;;;;;;2.47;1.70;;;;;;;;;;5092517;28;20477;-63
2023/09/20 10:54:39;;;;;;;3.30;1.57;;;;;;;;;;5094529;28;20447;-62
2023/09/20 10:57:09;;;;;;;2.57;1.43;;;;;;;;;;5096044;28;20442;-65
2023/09/20 10:59:37;;;;;;;4.13;1.30;;;;;;;;;;5095978;28;20817;-64
2023/09/20 11:02:08;;;;;;;5.67;1.80;;;;;;;;;;5096002;28;20442;-65
2023/09/20 11:04:35;;;;;;;4.23;1.67;;;;;;;;;;5096133;28;20529;-62
2023/09/20 11:07:02;;;;;;;7.00;1.83;;;;;;;;;;5096190;28;20446;-66
2023/09/20 11:09:31;;;;;;;6.20;1.50;;;;;;;;;;5096108;28;20512;-62
2023/09/20 11:12:04;;;;;;;3.27;1.70;;;;;;;;;;5095995;28;20461;-65
2023/09/20 11:14:31;;;;;;;2.77;1.60;;;;;;;;;;5095926;28;20442;-67
2023/09/20 11:16:59;;;;;;;2.67;1.73;;;;;;;;;;5095732;28;20469;-66
2023/09/20 11:19:27;;;;;;;3.10;1.50;;;;;;;;;;5095650;28;20484;-64
2023/09/20 11:21:54;;;;;;;3.47;1.60;;;;;;;;;;5095830;28;20488;-66
2023/09/20 11:24:21;;;;;;;2.60;1.40;;;;;;;;;;5095662;28;21029;-62
2023/09/20 11:26:48;;;;;;;3.77;1.60;;;;;;;;;;5095654;28;20449;-61
2023/09/20 11:29:16;;;;;;;3.07;1.50;;;;;;;;;;5095541;28;20840;-61
2023/09/20 11:31:45;;;;;;;3.10;1.80;;;;;;;;;;5095664;28;20519;-67
2023/09/20 11:34:13;;;;;;;2.40;1.20;;;;;;;;;;5095685;28;20533;-70
2023/09/20 11:36:42;;;;;;;3.57;1.40;;;;;;;;;;5095584;28;20439;-66
2023/09/20 11:39:09;;;;;;;3.50;1.70;;;;;;;;;;5095265;28;20916;-64
2023/09/20 11:41:37;;;;;;;12.13;2.30;;;;;;;;;;5095348;28;20534;-65
2023/09/20 11:44:07;;;;;;;4.40;1.63;;;;;;;;;;5095389;28;20453;-68
2023/09/20 11:46:34;;;;;;;2.83;1.37;;;;;;;;;;5095414;28;20449;-62
2023/09/20 11:49:02;;;;;;;1.50;1.40;;;;;;;;;;5095063;28;20933;-65
2023/09/20 11:51:31;;;;;;;5.17;2.03;;;;;;;;;;5095045;28;20467;-62
2023/09/20 11:53:59;;;;;;;7.50;3.40;;;;;;;;;;5095022;28;20450;-65
2023/09/20 11:56:29;;;;;;;3.00;1.63;;;;;;;;;;5095232;28;20439;-65
2023/09/20 11:58:58;;;;;;;3.97;1.47;;;;;;;;;;5095283;28;20514;-65
2023/09/20 12:01:25;;;;;;;3.00;1.50;;;;;;;;;;5095029;28;20529;-64
2023/09/20 12:03:52;;;;;;;8.17;1.40;;;;;;;;;;5094983;28;20580;-64
2023/09/20 12:06:19;;;;;;;1.73;1.63;;;;;;;;;;5094553;28;20493;-67
2023/09/20 12:08:47;;;;;;;2.23;1.67;;;;;;;;;;5094724;28;20880;-63
2023/09/20 12:11:14;;;;;;;1.90;1.20;;;;;;;;;;5094921;28;20447;-62
2023/09/20 12:13:42;;;;;;;2.60;1.60;;;;;;;;;;5094777;28;20446;-60
2023/09/20 12:16:09;;;;;;;2.30;1.40;;;;;;;;;;5094725;28;20450;-62
2023/09/20 12:18:37;;;;;;;1.80;1.60;;;;;;;;;;5094526;28;20471;-66
2023/09/20 12:21:04;;;;;;;2.40;1.43;;;;;;;;;;5094525;28;20442;-60
2023/09/20 12:23:31;;;;;;;1.20;1.10;;;;;;;;;;5094416;28;20450;-63
2023/09/20 12:25:59;;;;;;;1.50;1.40;;;;;;;;;;5094662;28;20533;-66
2023/09/20 12:28:26;;;;;;;4.03;1.30;;;;;;;;;;5094319;28;20450;-66
2023/09/20 12:30:53;;;;;;;2.23;1.53;;;;;;;;;;5093885;28;20443;-66
2023/09/20 12:33:20;;;;;;;3.43;1.47;;;;;;;;;;5094359;28;20537;-66
2023/09/20 12:35:47;;;;;;;2.30;1.20;;;;;;;;;;5093829;28;20446;-65
2023/09/20 12:38:14;;;;;;;1.93;1.43;;;;;;;;;;5094119;28;20480;-66
2023/09/20 12:40:41;;;;;;;2.90;1.50;;;;;;;;;;5094506;28;20721;-66
2023/09/20 12:43:09;;;;;;;2.30;1.10;;;;;;;;;;5094328;28;20537;-66
2023/09/20 12:45:36;;;;;;;3.20;1.40;;;;;;;;;;5094072;28;20871;-66
2023/09/20 12:48:03;;;;;;;4.50;1.80;;;;;;;;;;5094062;28;20537;-66
2023/09/20 12:50:33;;;;;;;1.50;1.30;;;;;;;;;;5093612;28;20555;-66
2023/09/20 12:53:00;;;;;;;4.00;1.50;;;;;;;;;;5094087;28;20474;-66
2023/09/20 12:55:27;;;;;;;4.27;1.67;;;;;;;;;;5094084;28;20446;-66
2023/09/20 12:57:54;;;;;;;1.77;1.43;;;;;;;;;;5093881;28;20442;-66
2023/09/20 13:00:23;;;;;;;1.47;1.37;;;;;;;;;;5093934;28;20898;-66
2023/09/20 13:02:50;;;;;;;1.40;1.23;;;;;;;;;;5093904;28;20457;-66
2023/09/20 13:05:17;;;;;;;5.27;1.40;;;;;;;;;;5093752;28;20534;-66
2023/09/20 13:07:44;;;;;;;2.40;1.83;;;;;;;;;;5093870;28;20482;-66
2023/09/20 13:10:13;;;;;;;1.70;1.27;;;;;;;;;;5093816;28;20545;-66
2023/09/20 13:12:40;;;;;;;2.63;1.63;;;;;;;;;;5093776;28;20445;-66
2023/09/20 13:15:12;;;;;;;1.77;1.37;;;;;;;;;;5093693;28;20474;-66
2023/09/20 13:17:40;;;;;;;1.63;1.20;;;;;;;;;;5092861;28;20537;-66
2023/09/20 13:20:09;;;;;;;1.47;1.30;;;;;;;;;;5093692;28;20524;-66
2023/09/20 13:22:36;;;;;;;1.83;1.57;;;;;;;;;;5093621;28;20942;-66
2023/09/20 13:25:03;;;;;;;2.90;1.43;;;;;;;;;;5093619;28;20446;-66
2023/09/20 13:27:30;;;;;;;1.87;1.37;;;;;;;;;;5093495;28;20530;-66
2023/09/20 13:29:57;;;;;;;1.73;1.40;;;;;;;;;;5093046;28;20875;-66
2023/09/20 13:32:26;;;;;;;3.90;1.20;;;;;;;;;;5093489;28;20500;-66
2023/09/20 13:34:54;;;;;;;1.63;1.53;;;;;;;;;;5093176;28;20454;-66
2023/09/20 13:37:21;;;;;;;3.73;1.40;;;;;;;;;;5093237;28;20873;-66
2023/09/20 13:39:48;;;;;;;1.17;1.07;;;;;;;;;;5093167;28;20482;-66
2023/09/20 13:42:15;;;;;;;1.50;1.40;;;;;;;;;;5093352;28;20525;-66
2023/09/20 13:44:42;;;;;;;2.73;1.60;;;;;;;;;;5092725;28;20450;-66
2023/09/20 13:47:09;;;;;;;1.83;1.40;;;;;;;;;;5093163;28;20451;-66
2023/09/20 13:49:36;;;;;;;2.40;1.37;;;;;;;;;;5093075;28;20534;-66
2023/09/20 13:52:08;;;;;;;3.20;1.20;;;;;;;;;;5093155;28;20451;-66
2023/09/20 13:54:35;;;;;;;2.30;1.60;;;;;;;;;;5093172;28;20443;-66
2023/09/20 13:57:02;;;;;;;3.77;1.40;;;;;;;;;;5092960;28;20884;-66
2023/09/20 13:59:30;;;;;;;2.40;1.70;;;;;;;;;;5092978;28;20485;-67
2023/09/20 14:01:58;;;;;;;1.73;1.63;;;;;;;;;;5093044;28;20453;-66
2023/09/20 14:04:25;;;;;;;3.33;1.70;;;;;;;;;;5092941;28;20511;-67
2023/09/20 14:06:52;;;;;;;4.80;1.60;;;;;;;;;;5092925;28;20446;-66
2023/09/20 14:09:21;;;;;;;2.30;1.73;;;;;;;;;;5092951;28;20447;-67
2023/09/20 14:11:48;;;;;;;2.23;1.83;;;;;;;;;;5092941;28;20493;-66
2023/09/20 14:14:17;;;;;;;2.53;2.03;;;;;;;;;;5093124;28;20476;-66
2023/09/20 14:16:44;;;;;;;4.90;1.93;;;;;;;;;;5092950;28;20467;-66
2023/09/20 14:19:10;;;;;;;2.30;1.50;;;;;;;;;;5092784;28;20906;-66
2023/09/20 14:21:38;;;;;;;1.73;1.30;;;;;;;;;;5092810;28;20840;-66
2023/09/20 14:24:05;;;;;;;2.67;1.30;;;;;;;;;;5092781;28;20806;-66
2023/09/20 14:26:38;;;;;;;2.20;1.70;;;;;;;;;;5092900;28;20529;-66
2023/09/20 14:29:07;;;;;;;1.93;1.73;;;;;;;;;;5096042;28;20504;-66
2023/09/20 14:31:34;;;;;;;3.90;1.50;;;;;;;;;;5096879;28;20449;-66
2023/09/20 14:34:01;;;;;;;1.80;1.70;;;;;;;;;;5096777;28;20608;-66
2023/09/20 14:36:28;;;;;;;1.80;1.70;;;;;;;;;;5096733;28;20454;-66
2023/09/20 14:38:57;;;;;;;4.63;1.50;;;;;;;;;;5096386;28;20552;-66
2023/09/20 14:41:25;;;;;;;2.13;1.40;;;;;;;;;;5096470;28;20956;-66
2023/09/20 14:43:53;;;;;;;2.63;1.53;;;;;;;;;;5096471;28;20996;-66
2023/09/20 14:46:21;;;;;;;3.50;1.70;;;;;;;;;;5096544;28;20442;-66
2023/09/20 14:48:48;;;;;;;3.53;1.60;;;;;;;;;;5096376;28;20453;-66
2023/09/20 14:51:17;;;;;;;5.87;1.57;;;;;;;;;;5096161;28;20481;-66
2023/09/20 14:53:44;;;;;;;3.07;1.87;;;;;;;;;;5096470;28;20442;-66
2023/09/20 14:56:13;;;;;;;3.10;2.13;;;;;;;;;;5096402;28;20449;-66
2023/09/20 14:58:40;;;;;;;3.00;1.67;;;;;;;;;;5096282;28;20446;-66
2023/09/20 15:01:17;;;;;;;1.87;1.73;;;;;;;;;;5096279;28;20473;-66
2023/09/20 15:03:44;;;;;;;2.43;1.80;;;;;;;;;;5095921;28;20474;-66
2023/09/20 15:06:16;;;;;;;5.17;2.10;;;;;;;;;;5095887;28;20966;-66
2023/09/20 15:08:43;;;;;;;2.00;1.70;;;;;;;;;;5096219;28;20446;-66
2023/09/20 15:11:12;;;;;;;2.40;1.80;;;;;;;;;;5096219;28;20955;-66
2023/09/20 15:13:39;;;;;;;3.10;1.60;;;;;;;;;;5095922;28;20443;-66
2023/09/20 15:16:10;;;;;;;5.47;1.80;;;;;;;;;;5095972;28;20449;-66
2023/09/20 15:18:38;;;;;;;2.50;1.30;;;;;;;;;;5096020;28;20446;-66
2023/09/20 15:21:07;;;;;;;2.80;1.50;;;;;;;;;;5096043;28;20843;-66
2023/09/20 15:23:35;;;;;;;1.63;1.53;;;;;;;;;;5095787;28;20786;-66